John James Audubon — WDE8037 — position and weather

sailwx.info

Track history (hours):
 
Tides and Currents Weather Stations Pressure Air Temp Water Temp Dewpoint Dewpoint Depression Visibility Wind Speed Wind Dir Waves Ship Positions

John James Audubon

Owner: Statue Cruises, Jersey City, NJ. More information available from US FCC via Universal Licensing System and Coast Guard Vessel Documentation Center.

Last reported at 2014-Nov-21 23:17 UTC. Time now 2014-Nov-28 11:51 UTC.
Position N 40°44' W 074°01'.

Length 37 m.

Type: Ship. MMSI: 367400770.

Date/timePositionNaut miles runAvg speedWind from/ knotsBaromVisibWave heightAir tempDewpointWater temp
2014-Nov-21 23:17N 40°44' W 074°01'2 2.4
2014-Nov-21 22:34N 40°42' W 074°01'0 0.4
2014-Nov-21 21:34N 40°42' W 074°02'1 1.2
2014-Nov-21 20:34N 40°42' W 074°00'0 0.0
2014-Nov-21 19:34N 40°42' W 074°00'2 1.9
2014-Nov-21 18:34N 40°41' W 074°02'2 1.9
2014-Nov-21 17:33N 40°42' W 074°00'0 0.0
2014-Nov-21 16:34N 40°42' W 074°00'2 2.1
2014-Nov-21 15:34N 40°41' W 074°03'2 2.0
2014-Nov-21 14:34N 40°42' W 074°00'1 0.1
2014-Nov-20 22:33N 40°43' W 074°01'2 1.5
2014-Nov-20 21:33N 40°41' W 074°02'2 1.9
2014-Nov-20 20:33N 40°42' W 074°00'0 0.0
2014-Nov-20 19:33N 40°42' W 074°00'2 1.6
2014-Nov-20 18:33N 40°41' W 074°02'2 1.6
2014-Nov-20 17:33N 40°42' W 074°00'0 0.0
2014-Nov-20 16:33N 40°42' W 074°00'2 2.1
2014-Nov-20 15:33N 40°41' W 074°03'2 2.1
2014-Nov-20 14:33N 40°42' W 074°00'1 0.0
2014-Nov-19 22:33N 40°42' W 074°01'2 1.5
2014-Nov-19 21:33N 40°41' W 074°03'2 2.1
2014-Nov-19 20:33N 40°42' W 074°00'0 0.0
2014-Nov-19 19:33N 40°42' W 074°00'2 1.9
2014-Nov-19 18:33N 40°41' W 074°02'2 1.9
2014-Nov-19 17:33N 40°42' W 074°00'0 0.0
2014-Nov-19 16:33N 40°42' W 074°00'2 1.8
2014-Nov-19 15:33N 40°41' W 074°02'2 1.8
2014-Nov-19 14:33N 40°42' W 074°00'2 1.6
2014-Nov-19 13:33N 40°44' W 074°01'0 0.0
2014-Nov-18 22:33N 40°44' W 074°01'3 2.6
2014-Nov-18 21:33N 40°41' W 074°02'2 2.0
2014-Nov-18 20:33N 40°42' W 074°00'0 0.0
2014-Nov-18 19:33N 40°42' W 074°00'2 1.7
2014-Nov-18 18:33N 40°41' W 074°02'2 1.7
2014-Nov-18 17:33N 40°42' W 074°00'0 0.0
2014-Nov-18 16:33N 40°42' W 074°00'2 2.0
2014-Nov-18 15:33N 40°41' W 074°02'2 2.0
2014-Nov-18 14:33N 40°42' W 074°00'2 0.1
2014-Nov-17 22:32N 40°44' W 074°01'3 3.0
2014-Nov-17 21:33N 40°41' W 074°02'2 2.0
2014-Nov-17 20:33N 40°42' W 074°00'0 0.0
2014-Nov-17 19:33N 40°42' W 074°00'2 2.0
2014-Nov-17 18:33N 40°41' W 074°02'2 2.0
2014-Nov-17 17:33N 40°42' W 074°00'0 0.0
2014-Nov-17 16:34N 40°42' W 074°00'0 0.0
2014-Nov-17 15:34N 40°42' W 074°00'2 1.8
2014-Nov-17 14:33N 40°43' W 074°02'2 0.1
2014-Nov-16 23:22N 40°44' W 074°01'0 0.0
2014-Nov-16 22:33N 40°44' W 074°01'3 2.9
2014-Nov-16 21:33N 40°41' W 074°03'2 2.1
2014-Nov-16 20:33N 40°42' W 074°00'0 0.0
2014-Nov-16 19:33N 40°42' W 074°00'2 1.7
2014-Nov-16 18:33N 40°42' W 074°02'2 1.7
2014-Nov-16 17:33N 40°42' W 074°00'0 0.0
2014-Nov-16 16:33N 40°42' W 074°00'2 2.0
2014-Nov-16 15:33N 40°41' W 074°02'2 2.0
2014-Nov-16 14:33N 40°42' W 074°00'1 0.1
2014-Nov-15 22:33N 40°43' W 074°01'2 2.1
2014-Nov-15 21:33N 40°41' W 074°03'2 2.1
2014-Nov-15 20:33N 40°42' W 074°00'0 0.0
2014-Nov-15 19:34N 40°42' W 074°00'1 1.3
2014-Nov-15 18:34N 40°42' W 074°02'1 1.3
2014-Nov-15 17:33N 40°42' W 074°00'0 0.0
2014-Nov-15 16:33N 40°42' W 074°00'2 1.9
2014-Nov-15 15:34N 40°41' W 074°02'2 1.9
2014-Nov-15 14:34N 40°42' W 074°00'1 0.1
2014-Nov-14 22:34N 40°43' W 074°01'2 2.1
2014-Nov-14 21:34N 40°41' W 074°02'2 1.7
2014-Nov-14 20:33N 40°42' W 074°00'0 0.0
2014-Nov-14 19:34N 40°42' W 074°00'2 1.9
2014-Nov-14 18:34N 40°41' W 074°02'2 1.9
2014-Nov-14 17:33N 40°42' W 074°00'0 0.0
2014-Nov-14 16:34N 40°42' W 074°00'2 2.1
2014-Nov-14 15:34N 40°41' W 074°02'2 2.1
2014-Nov-14 14:34N 40°42' W 074°00'2 0.1
2014-Nov-13 22:33N 40°44' W 074°01'2 1.7
2014-Nov-13 21:34N 40°42' W 074°02'1 1.2
2014-Nov-13 20:34N 40°42' W 074°00'0 0.0
2014-Nov-13 19:34N 40°42' W 074°00'2 1.6
2014-Nov-13 18:33N 40°42' W 074°02'2 1.6
2014-Nov-13 17:33N 40°42' W 074°00'0 0.0
2014-Nov-13 16:33N 40°42' W 074°00'2 1.8
2014-Nov-13 15:33N 40°41' W 074°02'2 1.8
2014-Nov-13 14:33N 40°42' W 074°00'2 1.6
2014-Nov-13 13:33N 40°44' W 074°01'0 0.0
2014-Nov-12 22:33N 40°44' W 074°01'3 2.7
2014-Nov-12 21:33N 40°41' W 074°02'2 1.7
2014-Nov-12 20:33N 40°42' W 074°00'0 0.0
2014-Nov-12 19:33N 40°42' W 074°00'2 1.9
2014-Nov-12 18:33N 40°41' W 074°02'2 1.9
2014-Nov-12 17:33N 40°42' W 074°00'0 0.0
2014-Nov-12 16:33N 40°42' W 074°00'2 2.0
2014-Nov-12 15:33N 40°41' W 074°03'2 2.0
2014-Nov-12 14:33N 40°42' W 074°00'2 1.6
2014-Nov-12 13:33N 40°44' W 074°01'  
Track history (hours):
 
Tides and Currents Weather Stations Pressure Air Temp Water Temp Dewpoint Dewpoint Depression Visibility Wind Speed Wind Dir Waves Ship Positions

John James Audubon

Owner: Statue Cruises, Jersey City, NJ. More information available from US FCC via Universal Licensing System and Coast Guard Vessel Documentation Center.

Last reported at 2014-Nov-21 23:17 UTC. Time now 2014-Nov-28 11:51 UTC.
Position N 40°44' W 074°01'.

Length 37 m.

Type: Ship. MMSI: 367400770.

Date/timePositionNaut miles runAvg speedWind from/ knotsBaromVisibWave heightAir tempDewpointWater temp
2014-Nov-21 23:17N 40°44' W 074°01'2 2.4
2014-Nov-21 22:34N 40°42' W 074°01'0 0.4
2014-Nov-21 21:34N 40°42' W 074°02'1 1.2
2014-Nov-21 20:34N 40°42' W 074°00'0 0.0
2014-Nov-21 19:34N 40°42' W 074°00'2 1.9
2014-Nov-21 18:34N 40°41' W 074°02'2 1.9
2014-Nov-21 17:33N 40°42' W 074°00'0 0.0
2014-Nov-21 16:34N 40°42' W 074°00'2 2.1
2014-Nov-21 15:34N 40°41' W 074°03'2 2.0
2014-Nov-21 14:34N 40°42' W 074°00'1 0.1
2014-Nov-20 22:33N 40°43' W 074°01'2 1.5
2014-Nov-20 21:33N 40°41' W 074°02'2 1.9
2014-Nov-20 20:33N 40°42' W 074°00'0 0.0
2014-Nov-20 19:33N 40°42' W 074°00'2 1.6
2014-Nov-20 18:33N 40°41' W 074°02'2 1.6
2014-Nov-20 17:33N 40°42' W 074°00'0 0.0
2014-Nov-20 16:33N 40°42' W 074°00'2 2.1
2014-Nov-20 15:33N 40°41' W 074°03'2 2.1
2014-Nov-20 14:33N 40°42' W 074°00'1 0.0
2014-Nov-19 22:33N 40°42' W 074°01'2 1.5
2014-Nov-19 21:33N 40°41' W 074°03'2 2.1
2014-Nov-19 20:33N 40°42' W 074°00'0 0.0
2014-Nov-19 19:33N 40°42' W 074°00'2 1.9
2014-Nov-19 18:33N 40°41' W 074°02'2 1.9
2014-Nov-19 17:33N 40°42' W 074°00'0 0.0
2014-Nov-19 16:33N 40°42' W 074°00'2 1.8
2014-Nov-19 15:33N 40°41' W 074°02'2 1.8
2014-Nov-19 14:33N 40°42' W 074°00'2 1.6
2014-Nov-19 13:33N 40°44' W 074°01'0 0.0
2014-Nov-18 22:33N 40°44' W 074°01'3 2.6
2014-Nov-18 21:33N 40°41' W 074°02'2 2.0
2014-Nov-18 20:33N 40°42' W 074°00'0 0.0
2014-Nov-18 19:33N 40°42' W 074°00'2 1.7
2014-Nov-18 18:33N 40°41' W 074°02'2 1.7
2014-Nov-18 17:33N 40°42' W 074°00'0 0.0
2014-Nov-18 16:33N 40°42' W 074°00'2 2.0
2014-Nov-18 15:33N 40°41' W 074°02'2 2.0
2014-Nov-18 14:33N 40°42' W 074°00'2 0.1
2014-Nov-17 22:32N 40°44' W 074°01'3 3.0
2014-Nov-17 21:33N 40°41' W 074°02'2 2.0
2014-Nov-17 20:33N 40°42' W 074°00'0 0.0
2014-Nov-17 19:33N 40°42' W 074°00'2 2.0
2014-Nov-17 18:33N 40°41' W 074°02'2 2.0
2014-Nov-17 17:33N 40°42' W 074°00'0 0.0
2014-Nov-17 16:34N 40°42' W 074°00'0 0.0
2014-Nov-17 15:34N 40°42' W 074°00'2 1.8
2014-Nov-17 14:33N 40°43' W 074°02'2 0.1
2014-Nov-16 23:22N 40°44' W 074°01'0 0.0
2014-Nov-16 22:33N 40°44' W 074°01'3 2.9
2014-Nov-16 21:33N 40°41' W 074°03'2 2.1
2014-Nov-16 20:33N 40°42' W 074°00'0 0.0
2014-Nov-16 19:33N 40°42' W 074°00'2 1.7
2014-Nov-16 18:33N 40°42' W 074°02'2 1.7
2014-Nov-16 17:33N 40°42' W 074°00'0 0.0
2014-Nov-16 16:33N 40°42' W 074°00'2 2.0
2014-Nov-16 15:33N 40°41' W 074°02'2 2.0
2014-Nov-16 14:33N 40°42' W 074°00'1 0.1
2014-Nov-15 22:33N 40°43' W 074°01'2 2.1
2014-Nov-15 21:33N 40°41' W 074°03'2 2.1
2014-Nov-15 20:33N 40°42' W 074°00'0 0.0
2014-Nov-15 19:34N 40°42' W 074°00'1 1.3
2014-Nov-15 18:34N 40°42' W 074°02'1 1.3
2014-Nov-15 17:33N 40°42' W 074°00'0 0.0
2014-Nov-15 16:33N 40°42' W 074°00'2 1.9
2014-Nov-15 15:34N 40°41' W 074°02'2 1.9
2014-Nov-15 14:34N 40°42' W 074°00'1 0.1
2014-Nov-14 22:34N 40°43' W 074°01'2 2.1
2014-Nov-14 21:34N 40°41' W 074°02'2 1.7
2014-Nov-14 20:33N 40°42' W 074°00'0 0.0
2014-Nov-14 19:34N 40°42' W 074°00'2 1.9
2014-Nov-14 18:34N 40°41' W 074°02'2 1.9
2014-Nov-14 17:33N 40°42' W 074°00'0 0.0
2014-Nov-14 16:34N 40°42' W 074°00'2 2.1
2014-Nov-14 15:34N 40°41' W 074°02'2 2.1
2014-Nov-14 14:34N 40°42' W 074°00'2 0.1
2014-Nov-13 22:33N 40°44' W 074°01'2 1.7
2014-Nov-13 21:34N 40°42' W 074°02'1 1.2
2014-Nov-13 20:34N 40°42' W 074°00'0 0.0
2014-Nov-13 19:34N 40°42' W 074°00'2 1.6
2014-Nov-13 18:33N 40°42' W 074°02'2 1.6
2014-Nov-13 17:33N 40°42' W 074°00'0 0.0
2014-Nov-13 16:33N 40°42' W 074°00'2 1.8
2014-Nov-13 15:33N 40°41' W 074°02'2 1.8
2014-Nov-13 14:33N 40°42' W 074°00'2 1.6
2014-Nov-13 13:33N 40°44' W 074°01'0 0.0
2014-Nov-12 22:33N 40°44' W 074°01'3 2.7
2014-Nov-12 21:33N 40°41' W 074°02'2 1.7
2014-Nov-12 20:33N 40°42' W 074°00'0 0.0
2014-Nov-12 19:33N 40°42' W 074°00'2 1.9
2014-Nov-12 18:33N 40°41' W 074°02'2 1.9
2014-Nov-12 17:33N 40°42' W 074°00'0 0.0
2014-Nov-12 16:33N 40°42' W 074°00'2 2.0
2014-Nov-12 15:33N 40°41' W 074°03'2 2.0
2014-Nov-12 14:33N 40°42' W 074°00'2 1.6
2014-Nov-12 13:33N 40°44' W 074°01'  

Dump ship's entire track history